ADDS TAF Data INFO
IDs: Format: Raw Decoded Include METARs

Data at: 0652 UTC 19 Nov 2017

KDDC 190552Z AUTO 25004KT 10SM CLR M02/M09 A3031 RMK AO2 SLP273 T10221089 10044 21028 401171028 51006

KDDC 190543Z 1906/2006 24006KT P6SM SKC
  FM191500 21010KT P6SM SKC
  FM191800 21016G24KT P6SM SKC
  FM200000 19010KT P6SM FEW250